KMWL/MWL METAR and TAF weather

Enter ICAO airport designator
Station Type Date Time Source
KMWL METAR 2018/12/13 07:53 UTC NOAA

KMWL 130753Z AUTO 16006KT 10SM FEW120 12/10 A2971 RMK AO2 LTG DSNT NW SLP055 T01220100


Station Type Date Time Source
KMWL Decoded METAR 2018/12/13 07:53 UTC NOAA

MINERAL WELLS AIRPORT, TX, United States (KMWL) 32-47N 098-04W 284M
Dec 13, 2018 - 02:53 AM EST / 2018.12.13 0753 UTC
Wind: from the SSE (160 degrees) at 7 MPH (6 KT):0
Visibility: 10 mile(s):0
Sky conditions: mostly clear
Weather: Lightning observed
Temperature: 54.0 F (12.2 C)
Dew Point: 50.0 F (10.0 C)
Relative Humidity: 86%
Pressure (altimeter): 29.71 in. Hg (1006 hPa)
ob: KMWL 130753Z AUTO 16006KT 10SM FEW120 12/10 A2971 RMK AO2 LTG DSNT NW SLP055 T01220100
cycle: 8

Station Type Date Time Source
KMWL TAF UTC NOAA

Error!


Example: see airport list